Time;durP1;ratioP1;P1;durP2;ratioP2;P2;SDS_P1;SDS_P2;PMS_P1;PMS_P2;Temp;Humidity;BMP_temperature;BMP_pressure;BME280_temperature;BME280_humidity;BME280_pressure;Samples;Min_cycle;Max_cycle;Signal;HPM_P1;HPM_P2
2021/07/07 00:02:00;;;;;;;5.47;3.20;;;;;;;27.79;100.00;96175.50;5066302;28;20080;-59
2021/07/07 00:04:28;;;;;;;5.00;3.47;;;;;;;28.10;100.00;96175.72;5067465;28;20069;-56
2021/07/07 00:06:57;;;;;;;3.83;3.00;;;;;;;28.50;100.00;96166.97;5066711;28;20067;-59
2021/07/07 00:09:25;;;;;;;4.78;3.47;;;;;;;27.88;100.00;96182.09;5068037;28;20065;-59
2021/07/07 00:11:53;;;;;;;7.88;3.95;;;;;;;28.24;100.00;96176.06;5065670;28;20075;-59
2021/07/07 00:14:23;;;;;;;5.65;3.90;;;;;;;28.34;100.00;96181.53;5066370;28;20060;-56
2021/07/07 00:16:52;;;;;;;4.68;3.60;;;;;;;27.77;100.00;96183.09;5066741;28;20111;-57
2021/07/07 00:19:20;;;;;;;4.97;3.60;;;;;;;28.63;100.00;96174.63;5070102;28;20083;-58
2021/07/07 00:21:49;;;;;;;4.82;3.65;;;;;;;27.97;100.00;96176.97;5066409;28;20464;-59
2021/07/07 00:24:17;;;;;;;4.50;3.40;;;;;;;27.98;100.00;96175.94;5066994;28;20064;-59
2021/07/07 00:26:45;;;;;;;8.00;3.80;;;;;;;28.56;100.00;96170.50;5065922;28;20075;-59
2021/07/07 00:29:14;;;;;;;3.95;3.47;;;;;;;28.55;100.00;96168.88;5065401;28;20064;-59
2021/07/07 00:31:43;;;;;;;3.85;3.42;;;;;;;28.16;100.00;96164.63;5067008;28;20514;-56
2021/07/07 00:34:12;;;;;;;6.70;3.63;;;;;;;27.80;100.00;96160.06;5068769;28;20084;-58
2021/07/07 00:36:40;;;;;;;4.47;3.90;;;;;;;26.19;100.00;96140.91;5068436;28;20068;-60
2021/07/07 00:39:08;;;;;;;6.20;3.92;;;;;;;25.76;100.00;96127.03;5065877;28;20060;-57
2021/07/07 00:41:37;;;;;;;7.25;3.85;;;;;;;25.90;100.00;96126.72;5065488;28;20466;-60
2021/07/07 00:44:05;;;;;;;5.63;3.95;;;;;;;26.80;100.00;96132.66;5066573;28;20067;-56
2021/07/07 00:46:34;;;;;;;6.88;3.97;;;;;;;27.57;100.00;96143.09;5067294;28;20079;-59
2021/07/07 00:49:09;;;;;;;4.65;3.92;;;;;;;27.82;100.00;96149.81;5061652;28;20159;-58
2021/07/07 00:51:38;;;;;;;5.97;4.10;;;;;;;27.44;100.00;96160.59;5066850;28;20087;-59
2021/07/07 00:54:07;;;;;;;4.95;3.90;;;;;;;28.02;100.00;96151.81;5064648;28;20465;-59
2021/07/07 00:56:36;;;;;;;4.32;3.80;;;;;;;27.06;100.00;96160.78;5064079;28;20512;-59
2021/07/07 00:59:06;;;;;;;5.07;3.67;;;;;;;27.59;100.00;96175.34;5065536;28;20450;-59
2021/07/07 01:01:35;;;;;;;6.05;3.75;;;;;;;26.78;100.00;96186.22;5068013;28;20131;-59
2021/07/07 01:04:04;;;;;;;4.88;3.45;;;;;;;27.61;100.00;96178.63;5064590;28;20060;-57
2021/07/07 01:06:34;;;;;;;6.65;3.53;;;;;;;27.41;100.00;96180.09;5064926;28;20067;-59
2021/07/07 01:09:03;;;;;;;9.95;3.25;;;;;;;27.28;100.00;96180.50;5066433;28;20518;-59
2021/07/07 01:11:33;;;;;;;3.80;3.40;;;;;;;28.11;100.00;96166.47;5064638;28;20469;-55
2021/07/07 01:14:01;;;;;;;3.63;3.08;;;;;;;27.25;100.00;96177.50;5064573;28;20079;-59
2021/07/07 01:16:31;;;;;;;3.97;3.05;;;;;;;28.25;100.00;96172.25;5067800;28;20099;-58
2021/07/07 01:18:59;;;;;;;4.30;3.33;;;;;;;27.27;100.00;96167.25;5066454;28;20072;-58
2021/07/07 01:21:28;;;;;;;5.55;3.10;;;;;;;27.11;100.00;96152.72;5060973;28;20541;-58
2021/07/07 01:23:57;;;;;;;3.42;2.65;;;;;;;26.91;100.00;96145.22;5064013;28;20068;-59
2021/07/07 01:26:26;;;;;;;3.15;2.55;;;;;;;28.09;100.00;96141.56;5065287;28;20064;-58
2021/07/07 01:28:54;;;;;;;4.40;2.70;;;;;;;27.56;100.00;96144.16;5064315;28;20084;-59
2021/07/07 01:31:22;;;;;;;4.20;2.67;;;;;;;28.42;100.00;96137.63;5067020;28;20557;-59
2021/07/07 01:33:51;;;;;;;6.45;2.70;;;;;;;26.59;100.00;96135.16;5064319;28;20080;-56
2021/07/07 01:36:19;;;;;;;3.15;2.85;;;;;;;26.68;100.00;96135.53;5065242;28;20064;-59
2021/07/07 01:38:48;;;;;;;4.90;2.63;;;;;;;26.81;100.00;96143.25;5062032;28;20064;-58
2021/07/07 01:41:17;;;;;;;4.65;2.72;;;;;;;28.07;100.00;96138.28;5065138;28;20086;-59
2021/07/07 01:43:47;;;;;;;4.10;2.90;;;;;;;28.22;100.00;96137.53;5065287;28;20060;-59
2021/07/07 01:46:16;;;;;;;3.13;2.38;;;;;;;27.75;100.00;96132.91;5065819;28;20506;-59
2021/07/07 01:48:44;;;;;;;3.28;2.55;;;;;;;26.79;100.00;96149.97;5064616;28;20060;-59
2021/07/07 01:51:12;;;;;;;2.97;2.30;;;;;;;27.05;100.00;96169.97;5064940;28;20060;-59
2021/07/07 01:53:41;;;;;;;4.45;2.60;;;;;;;26.43;100.00;96174.72;5064880;28;20098;-58
2021/07/07 01:56:09;;;;;;;3.53;2.40;;;;;;;27.03;100.00;96191.88;5063787;28;20478;-59
2021/07/07 01:58:39;;;;;;;4.25;2.10;;;;;;;26.60;100.00;96179.25;5066607;28;20092;-59
2021/07/07 02:01:08;;;;;;;4.20;2.53;;;;;;;27.76;100.00;96176.03;5064305;28;20294;-60
2021/07/07 02:03:37;;;;;;;3.47;2.63;;;;;;;27.84;100.00;96166.59;5062449;28;20166;-59
2021/07/07 02:06:05;;;;;;;5.45;2.95;;;;;;;27.88;100.00;96162.31;5064976;28;20067;-59
2021/07/07 02:08:33;;;;;;;2.65;2.13;;;;;;;27.49;100.00;96162.53;5064886;28;20075;-58
2021/07/07 02:11:02;;;;;;;2.45;2.13;;;;;;;27.49;100.00;96159.00;5064431;28;21153;-59
2021/07/07 02:13:30;;;;;;;3.65;2.22;;;;;;;27.68;100.00;96163.75;5064958;28;20095;-58
2021/07/07 02:16:00;;;;;;;3.10;2.17;;;;;;;28.02;100.00;96174.31;5064876;28;20064;-59
2021/07/07 02:18:29;;;;;;;6.85;2.88;;;;;;;27.49;100.00;96175.25;5065796;28;20060;-56
2021/07/07 02:20:57;;;;;;;3.40;2.08;;;;;;;28.41;100.00;96160.41;5063522;28;20072;-59
2021/07/07 02:23:27;;;;;;;2.33;2.03;;;;;;;28.63;100.00;96146.66;5064180;28;20072;-59
2021/07/07 02:25:55;;;;;;;3.25;2.22;;;;;;;28.46;100.00;96156.91;5065380;28;20514;-59
2021/07/07 02:28:25;;;;;;;4.72;2.28;;;;;;;27.88;100.00;96165.03;5066199;28;20076;-58
2021/07/07 02:30:54;;;;;;;3.60;2.30;;;;;;;27.66;100.00;96184.88;5062633;28;20075;-58
2021/07/07 02:33:25;;;;;;;4.10;2.13;;;;;;;27.81;100.00;96181.50;5064150;28;20061;-56
2021/07/07 02:35:53;;;;;;;3.65;2.13;;;;;;;27.40;100.00;96181.16;5064320;28;20116;-60
2021/07/07 02:38:24;;;;;;;3.83;2.13;;;;;;;27.93;100.00;96167.75;5066642;28;20064;-59
2021/07/07 02:40:54;;;;;;;3.30;2.28;;;;;;;28.05;100.00;96156.72;5068386;28;20084;-57
2021/07/07 02:43:23;;;;;;;3.60;2.10;;;;;;;27.64;100.00;96151.81;5071393;28;20076;-56
2021/07/07 02:45:51;;;;;;;3.72;2.40;;;;;;;27.28;100.00;96152.63;5066419;28;20086;-60
2021/07/07 02:48:20;;;;;;;2.10;1.95;;;;;;;28.28;100.00;96150.84;5068323;28;20064;-59
2021/07/07 02:50:50;;;;;;;3.80;2.38;;;;;;;28.27;100.00;96148.41;5069248;28;20064;-57
2021/07/07 02:53:19;;;;;;;4.18;2.40;;;;;;;27.92;100.00;96145.25;5068451;28;20060;-59
2021/07/07 02:55:48;;;;;;;2.80;2.22;;;;;;;27.45;100.00;96156.00;5066954;28;20187;-58
2021/07/07 02:58:16;;;;;;;3.92;2.30;;;;;;;27.18;100.00;96161.47;5070813;28;20084;-59
2021/07/07 03:00:46;;;;;;;4.47;2.30;;;;;;;27.95;100.00;96154.75;5067987;28;20456;-59
2021/07/07 03:03:15;;;;;;;2.83;2.25;;;;;;;28.10;100.00;96154.81;5067246;28;21252;-58
2021/07/07 03:05:46;;;;;;;3.33;2.40;;;;;;;27.50;100.00;96177.72;5066729;28;20068;-59
2021/07/07 03:08:15;;;;;;;;;;;;;;;27.37;100.00;96184.38;5069885;28;20059;-59
2021/07/07 03:10:45;;;;;;;6.40;2.60;;;;;;;27.33;100.00;96201.41;5067979;28;19963;-58
2021/07/07 03:13:14;;;;;;;2.90;2.50;;;;;;;27.85;100.00;96198.06;5069145;28;20475;-59
2021/07/07 03:15:43;;;;;;;3.95;2.42;;;;;;;27.33;100.00;96210.34;5067078;28;20063;-59
2021/07/07 03:18:13;;;;;;;3.28;2.63;;;;;;;27.33;100.00;96214.97;5067602;28;20060;-57
2021/07/07 03:20:44;;;;;;;6.30;2.90;;;;;;;27.24;100.00;96211.06;5067119;28;20060;-59
2021/07/07 03:23:13;;;;;;;3.60;2.72;;;;;;;26.98;100.00;96202.69;5067435;28;20071;-57
2021/07/07 03:25:43;;;;;;;6.00;2.72;;;;;;;27.33;100.00;96191.41;5067665;28;20072;-59
2021/07/07 03:28:11;;;;;;;5.65;2.90;;;;;;;28.10;100.00;96184.66;5069987;28;20041;-59
2021/07/07 03:30:40;;;;;;;4.53;2.70;;;;;;;27.18;100.00;96189.34;5067029;28;20529;-59
2021/07/07 03:33:08;;;;;;;8.85;3.05;;;;;;;27.46;100.00;96190.16;5068390;28;20083;-59
2021/07/07 03:35:37;;;;;;;5.35;3.10;;;;;;;27.93;100.00;96173.16;5066636;28;20052;-60
2021/07/07 03:38:05;;;;;;;4.28;3.13;;;;;;;28.20;100.00;96154.06;5067657;28;20072;-60
2021/07/07 03:40:34;;;;;;;7.30;2.97;;;;;;;28.03;100.00;96150.72;5073099;28;20092;-57
2021/07/07 03:43:04;;;;;;;3.78;3.00;;;;;;;27.63;100.00;96180.00;5067747;28;20075;-60
2021/07/07 03:45:32;;;;;;;3.97;3.05;;;;;;;27.62;100.00;96188.38;5066667;28;20044;-59
2021/07/07 03:48:01;;;;;;;4.35;2.90;;;;;;;28.56;100.00;96187.63;5066635;28;20080;-59
2021/07/07 03:50:29;;;;;;;4.15;2.80;;;;;;;28.75;100.00;96185.22;5067052;28;20071;-59
2021/07/07 03:52:58;;;;;;;4.65;2.88;;;;;;;28.74;100.00;96191.75;5066458;28;20083;-57
2021/07/07 03:55:27;;;;;;;4.07;2.97;;;;;;;28.75;100.00;96198.81;5067814;28;20077;-59
2021/07/07 03:57:55;;;;;;;6.53;2.90;;;;;;;28.39;100.00;96200.56;5065420;28;20990;-60
2021/07/07 04:00:26;;;;;;;4.20;2.80;;;;;;;28.70;100.00;96212.38;5067045;28;20064;-60
2021/07/07 04:02:56;;;;;;;6.80;3.30;;;;;;;28.43;100.00;96220.66;5065563;28;20072;-59
2021/07/07 04:05:25;;;;;;;4.83;3.10;;;;;;;27.97;100.00;96223.06;5067507;28;20060;-61
2021/07/07 04:07:53;;;;;;;6.28;3.35;;;;;;;27.98;100.00;96221.16;5066815;28;20076;-61
2021/07/07 04:10:23;;;;;;;5.32;3.53;;;;;;;27.58;100.00;96230.59;5068474;28;20072;-60
2021/07/07 04:12:51;;;;;;;5.57;3.22;;;;;;;27.44;100.00;96231.03;5066390;28;20068;-61
2021/07/07 04:15:21;;;;;;;6.72;3.70;;;;;;;27.07;100.00;96241.72;5067385;28;20068;-61
2021/07/07 04:17:50;;;;;;;8.60;3.50;;;;;;;27.17;100.00;96241.06;5066358;28;20072;-61
2021/07/07 04:20:20;;;;;;;6.28;3.17;;;;;;;27.37;100.00;96240.44;5065709;28;20554;-60
2021/07/07 04:22:50;;;;;;;8.65;3.80;;;;;;;27.53;100.00;96244.09;5066223;28;20084;-61
2021/07/07 04:25:19;;;;;;;8.50;3.30;;;;;;;27.62;100.00;96243.38;5070289;28;20088;-61
2021/07/07 04:27:48;;;;;;;6.43;3.30;;;;;;;27.56;100.00;96252.50;5065746;28;20075;-60
2021/07/07 04:30:19;;;;;;;5.78;4.07;;;;;;;26.47;100.00;96264.28;5066725;28;20064;-60
2021/07/07 04:32:48;;;;;;;7.22;3.88;;;;;;;26.15;100.00;96262.22;5067360;28;20060;-60
2021/07/07 04:35:19;;;;;;;4.60;4.13;;;;;;;25.97;100.00;96270.56;5065058;28;20041;-61
2021/07/07 04:37:49;;;;;;;4.80;3.88;;;;;;;26.28;100.00;96282.66;5064826;28;20068;-61
2021/07/07 04:40:20;;;;;;;8.57;4.40;;;;;;;25.91;100.00;96288.59;5069036;28;20076;-60
2021/07/07 04:42:49;;;;;;;7.95;4.55;;;;;;;26.20;100.00;96296.59;5066638;28;20075;-60
2021/07/07 04:45:18;;;;;;;8.07;4.28;;;;;;;26.00;100.00;96300.59;5064948;28;20083;-61
2021/07/07 04:47:46;;;;;;;4.80;3.88;;;;;;;25.31;100.00;96298.06;5066804;28;20060;-61
2021/07/07 04:50:18;;;;;;;11.02;4.20;;;;;;;25.82;100.00;96306.28;5066267;28;20064;-61
2021/07/07 04:52:46;;;;;;;7.07;4.05;;;;;;;25.67;100.00;96308.66;5065656;28;20072;-60
2021/07/07 04:55:16;;;;;;;4.78;4.10;;;;;;;25.37;100.00;96307.06;5068025;28;20076;-61
2021/07/07 04:57:44;;;;;;;7.43;4.38;;;;;;;25.86;100.00;96306.59;5066735;28;20087;-60
2021/07/07 05:00:16;;;;;;;5.68;3.67;;;;;;;26.47;100.00;96283.22;5063634;28;20064;-61
2021/07/07 05:02:45;;;;;;;6.40;4.40;;;;;;;26.14;100.00;96275.94;5065334;28;20068;-61
2021/07/07 05:05:14;;;;;;;4.43;3.97;;;;;;;26.30;100.00;96275.13;5067367;28;20036;-61
2021/07/07 05:07:45;;;;;;;4.30;3.90;;;;;;;26.71;100.00;96270.28;5063797;28;20079;-61
2021/07/07 05:10:15;;;;;;;4.85;3.95;;;;;;;27.24;100.00;96260.63;5065854;28;20505;-61
2021/07/07 05:12:43;;;;;;;5.03;3.80;;;;;;;27.46;100.00;96268.72;5066001;28;20071;-61
2021/07/07 05:15:13;;;;;;;4.95;3.50;;;;;;;26.54;100.00;96261.41;5066877;28;20510;-61
2021/07/07 05:17:42;;;;;;;3.85;2.60;;;;;;;26.71;100.00;96268.41;5065130;28;20076;-61
2021/07/07 05:20:12;;;;;;;4.72;2.65;;;;;;;26.66;100.00;96279.13;5065240;28;20056;-61
2021/07/07 05:22:43;;;;;;;5.00;2.97;;;;;;;27.01;100.00;96275.22;5069090;28;20106;-58
2021/07/07 05:25:14;;;;;;;3.75;2.72;;;;;;;26.87;100.00;96290.22;5060363;28;21344;-59
2021/07/07 05:27:42;;;;;;;4.55;3.05;;;;;;;27.14;100.00;96291.09;5063652;28;20067;-60
2021/07/07 05:30:12;;;;;;;3.95;2.58;;;;;;;26.89;100.00;96298.91;5066950;28;20545;-59
2021/07/07 05:32:41;;;;;;;4.45;2.55;;;;;;;28.03;100.00;96286.28;5066011;28;20060;-59
2021/07/07 05:35:10;;;;;;;3.85;2.97;;;;;;;27.85;100.00;96301.03;5047955;28;20686;-59
2021/07/07 05:37:45;;;;;;;2.90;2.60;;;;;;;27.17;100.00;96306.03;5065001;28;20084;-60
2021/07/07 05:40:17;;;;;;;2.85;2.28;;;;;;;27.32;100.00;96300.75;5069171;28;20084;-60
2021/07/07 05:42:50;;;;;;;2.97;2.60;;;;;;;26.24;100.00;96320.16;5064309;28;20064;-59
2021/07/07 05:45:20;;;;;;;4.53;2.40;;;;;;;27.73;100.00;96312.00;5064294;28;20072;-58
2021/07/07 05:47:49;;;;;;;6.35;2.67;;;;;;;27.74;100.00;96315.56;5063870;28;20064;-59
2021/07/07 05:50:20;;;;;;;4.90;2.80;;;;;;;28.43;100.00;96321.03;5066183;28;20102;-59
2021/07/07 05:52:48;;;;;;;5.05;2.70;;;;;;;28.46;100.00;96309.66;5063947;28;20076;-56
2021/07/07 05:55:19;;;;;;;6.13;2.58;;;;;;;28.19;100.00;96319.75;5067057;28;20084;-59
2021/07/07 05:57:48;;;;;;;4.28;2.60;;;;;;;27.96;100.00;96316.31;5066236;28;20060;-60
2021/07/07 06:00:20;;;;;;;6.10;3.03;;;;;;;28.57;100.00;96324.91;5064674;28;20056;-57
2021/07/07 06:02:52;;;;;;;5.43;2.50;;;;;;;28.57;100.00;96316.78;5064376;28;20479;-58
2021/07/07 06:05:21;;;;;;;3.08;2.58;;;;;;;28.71;100.00;96325.25;5059898;28;20510;-58
2021/07/07 06:07:50;;;;;;;2.72;2.40;;;;;;;28.99;100.00;96317.78;5065785;28;20076;-59
2021/07/07 06:10:23;;;;;;;2.92;2.60;;;;;;;28.97;100.00;96320.75;5067388;28;20072;-57
2021/07/07 06:12:52;;;;;;;3.95;2.63;;;;;;;29.18;100.00;96312.72;5066031;28;20068;-59
2021/07/07 06:15:21;;;;;;;3.42;1.98;;;;;;;28.81;100.00;96325.31;5070846;28;20071;-59
2021/07/07 06:17:50;;;;;;;2.20;2.00;;;;;;;28.45;100.00;96328.91;5068554;28;20526;-58
2021/07/07 06:20:19;;;;;;;3.10;1.98;;;;;;;28.42;100.00;96340.28;5069265;28;20068;-60
2021/07/07 06:22:47;;;;;;;2.53;2.20;;;;;;;28.22;100.00;96339.03;5068975;28;20060;-59
2021/07/07 06:25:16;;;;;;;2.53;2.15;;;;;;;28.61;100.00;96346.91;5071503;28;20080;-59
2021/07/07 06:27:47;;;;;;;3.47;2.15;;;;;;;28.79;100.00;96340.22;5068268;28;20521;-57
2021/07/07 06:30:17;;;;;;;3.25;2.22;;;;;;;28.59;100.00;96343.63;5068815;28;20056;-59
2021/07/07 06:32:47;;;;;;;3.40;1.95;;;;;;;28.61;100.00;96345.00;5070068;28;20098;-56
2021/07/07 06:35:16;;;;;;;5.32;2.22;;;;;;;28.79;100.00;96351.09;5068496;28;20518;-59
2021/07/07 06:37:44;;;;;;;3.10;2.08;;;;;;;28.73;100.00;96352.94;5068668;28;20105;-59
2021/07/07 06:40:15;;;;;;;3.23;2.03;;;;;;;28.43;100.00;96352.78;5070622;28;20076;-58
2021/07/07 06:42:46;;;;;;;3.80;2.20;;;;;;;28.80;100.00;96350.84;5069398;28;20493;-59
2021/07/07 06:45:15;;;;;;;2.60;1.95;;;;;;;28.72;100.00;96351.31;5068265;28;20075;-60
2021/07/07 06:47:44;;;;;;;2.63;1.92;;;;;;;28.96;100.00;96330.00;5069257;28;20064;-59
2021/07/07 06:50:14;;;;;;;2.35;2.15;;;;;;;29.28;98.24;96334.47;5069967;28;20071;-58
2021/07/07 06:52:43;;;;;;;2.90;2.40;;;;;;;29.38;94.68;96339.94;5066854;28;20080;-58
2021/07/07 06:55:13;;;;;;;2.30;1.90;;;;;;;29.23;95.70;96343.44;5070259;28;20438;-59
2021/07/07 06:57:41;;;;;;;4.00;2.40;;;;;;;29.39;93.67;96351.63;5068657;28;20570;-58
2021/07/07 07:00:13;;;;;;;2.78;2.10;;;;;;;29.62;93.95;96343.03;5069870;28;20056;-59
2021/07/07 07:02:42;;;;;;;3.35;2.50;;;;;;;29.80;90.05;96344.41;5066392;28;20068;-59
2021/07/07 07:05:13;;;;;;;3.58;2.42;;;;;;;29.39;91.19;96332.59;5068185;28;20075;-60
2021/07/07 07:07:42;;;;;;;2.88;2.58;;;;;;;29.16;93.43;96339.34;5069200;28;20475;-59
2021/07/07 07:10:12;;;;;;;2.88;2.58;;;;;;;29.47;94.36;96341.06;5069364;28;20365;-59
2021/07/07 07:12:41;;;;;;;2.40;2.20;;;;;;;29.49;92.16;96348.94;5064963;28;20064;-59
2021/07/07 07:15:13;;;;;;;2.53;2.33;;;;;;;29.62;94.06;96351.19;5068483;28;20072;-60
2021/07/07 07:17:41;;;;;;;2.95;2.47;;;;;;;29.69;94.24;96348.22;5068578;28;20067;-60
2021/07/07 07:20:12;;;;;;;7.60;2.22;;;;;;;29.89;92.17;96355.59;5066842;28;20060;-60
2021/07/07 07:22:40;;;;;;;;;;;;;;;29.33;95.90;96362.50;5069497;28;20472;-60
2021/07/07 07:25:10;;;;;;;2.92;2.17;;;;;;;29.06;97.15;96369.97;5067908;28;21459;-57
2021/07/07 07:27:38;;;;;;;;;;;;;;;29.98;90.10;96370.28;5067810;28;20064;-59
2021/07/07 07:30:09;;;;;;;4.05;2.22;;;;;;;30.16;88.41;96369.75;5067161;28;19968;-58
2021/07/07 07:32:48;;;;;;;2.38;2.00;;;;;;;29.80;87.80;96375.16;5066284;28;20079;-59
2021/07/07 07:35:18;;;;;;;2.10;1.90;;;;;;;29.67;89.87;96375.66;5068675;28;20068;-59
2021/07/07 07:37:50;;;;;;;2.65;2.20;;;;;;;29.82;91.85;96382.22;5067782;28;20076;-60
2021/07/07 07:40:23;;;;;;;2.30;2.10;;;;;;;29.73;91.76;96380.03;5069199;28;20080;-59
2021/07/07 07:42:53;;;;;;;2.70;2.22;;;;;;;29.29;95.65;96371.44;5068627;28;20522;-59
2021/07/07 07:45:22;;;;;;;4.72;2.35;;;;;;;29.19;97.65;96379.56;5068345;28;20064;-58
2021/07/07 07:47:51;;;;;;;2.55;2.10;;;;;;;29.12;100.00;96387.94;5065067;28;20080;-60
2021/07/07 07:50:20;;;;;;;2.15;1.95;;;;;;;27.37;100.00;96392.91;5067352;28;20061;-60
2021/07/07 07:52:49;;;;;;;2.10;1.90;;;;;;;26.89;100.00;96391.72;5068037;28;20099;-60
2021/07/07 07:55:18;;;;;;;2.20;2.00;;;;;;;27.13;100.00;96383.41;5067962;28;20123;-59
2021/07/07 07:57:48;;;;;;;2.35;2.10;;;;;;;26.72;100.00;96385.53;5066369;28;20068;-59
2021/07/07 08:00:19;;;;;;;4.40;2.10;;;;;;;26.93;100.00;96392.88;5068414;28;20060;-59
2021/07/07 08:02:48;;;;;;;2.30;2.10;;;;;;;26.86;100.00;96399.53;5068178;28;20063;-60
2021/07/07 08:05:19;;;;;;;2.17;1.98;;;;;;;26.27;100.00;96389.97;5066681;28;20076;-59
2021/07/07 08:07:48;;;;;;;4.95;2.25;;;;;;;25.95;100.00;96388.91;5066618;28;20084;-57
2021/07/07 08:10:19;;;;;;;4.50;2.60;;;;;;;26.74;100.00;96395.06;5070234;28;20091;-59
2021/07/07 08:12:47;;;;;;;2.53;2.15;;;;;;;26.99;100.00;96412.72;5065455;28;20147;-56
2021/07/07 08:15:17;;;;;;;2.70;2.33;;;;;;;26.61;100.00;96419.75;5066240;28;20455;-56
2021/07/07 08:17:46;;;;;;;3.72;2.33;;;;;;;27.63;100.00;96423.00;5068145;28;20486;-59
2021/07/07 08:20:16;;;;;;;2.63;2.40;;;;;;;27.02;100.00;96424.94;5066137;28;20064;-57
2021/07/07 08:22:46;;;;;;;2.97;2.50;;;;;;;26.48;100.00;96409.25;5066888;28;20080;-60
2021/07/07 08:25:16;;;;;;;3.08;2.60;;;;;;;27.24;100.00;96409.53;5067872;28;20052;-59
2021/07/07 08:27:45;;;;;;;2.90;2.58;;;;;;;26.87;100.00;96417.41;5066960;28;20067;-59
2021/07/07 08:30:15;;;;;;;3.30;2.80;;;;;;;27.43;100.00;96429.00;5066267;28;20064;-57
2021/07/07 08:32:43;;;;;;;3.03;2.40;;;;;;;26.95;100.00;96449.47;5065905;28;20064;-59
2021/07/07 08:35:12;;;;;;;3.42;2.80;;;;;;;27.49;100.00;96440.72;5065320;28;20556;-56
2021/07/07 08:37:42;;;;;;;4.10;2.90;;;;;;;27.34;100.00;96444.06;5069471;28;20076;-59
2021/07/07 08:40:14;;;;;;;3.55;2.70;;;;;;;27.35;100.00;96434.84;5065156;28;20067;-59
2021/07/07 08:42:45;;;;;;;3.83;2.60;;;;;;;27.31;100.00;96442.66;5066932;28;20076;-59
2021/07/07 08:45:17;;;;;;;4.18;2.92;;;;;;;27.64;100.00;96430.06;5067181;28;20118;-58
2021/07/07 08:47:45;;;;;;;;;;;;;;;27.76;100.00;96433.47;5067705;28;20057;-60
2021/07/07 08:50:15;;;;;;;3.90;3.28;;;;;;;28.03;100.00;96438.09;5061540;28;19962;-58
2021/07/07 08:52:44;;;;;;;3.60;3.00;;;;;;;27.36;100.00;96444.63;5065097;28;20099;-59
2021/07/07 08:55:16;;;;;;;4.13;2.85;;;;;;;27.50;100.00;96440.47;5069674;28;20079;-59
2021/07/07 08:57:45;;;;;;;3.95;2.90;;;;;;;28.04;100.00;96437.81;5066045;28;20064;-60
2021/07/07 09:00:16;;;;;;;5.07;3.72;;;;;;;27.22;100.00;96452.31;5065779;28;20467;-60
2021/07/07 09:02:50;;;;;;;4.13;3.53;;;;;;;27.80;100.00;96458.16;5065704;28;20452;-59
2021/07/07 09:05:21;;;;;;;4.30;3.85;;;;;;;27.42;100.00;96466.09;5065908;28;20044;-57
2021/07/07 09:07:50;;;;;;;3.95;3.65;;;;;;;27.95;100.00;96469.19;5065251;28;20568;-59
2021/07/07 09:10:28;;;;;;;4.53;4.13;;;;;;;28.08;100.00;96460.66;5068841;28;20118;-58
2021/07/07 09:12:56;;;;;;;6.00;5.50;;;;;;;28.17;100.00;96467.25;5066509;28;20124;-59
2021/07/07 09:15:24;;;;;;;5.78;5.30;;;;;;;27.91;100.00;96462.66;5066047;28;20086;-59
2021/07/07 09:17:53;;;;;;;5.13;4.63;;;;;;;28.27;100.00;96468.41;5065118;28;20045;-60
2021/07/07 09:20:25;;;;;;;5.30;4.90;;;;;;;29.08;90.83;96481.88;5065537;28;20063;-60
2021/07/07 09:23:16;;;;;;;5.60;4.63;;;;;;;29.23;91.16;96473.81;5069428;28;20106;-59
2021/07/07 09:25:54;;;;;;;6.80;4.40;;;;;;;29.86;84.64;96473.03;5065758;28;20049;-59
2021/07/07 09:28:26;;;;;;;4.55;4.15;;;;;;;28.99;87.43;96472.56;5067591;28;20075;-60
2021/07/07 09:30:56;;;;;;;5.53;4.65;;;;;;;29.46;87.09;96474.50;5065939;28;20095;-58
2021/07/07 09:33:24;;;;;;;4.90;4.50;;;;;;;29.41;85.91;96494.28;5066411;28;20083;-59
2021/07/07 09:36:17;;;;;;;5.32;4.90;;;;;;;29.27;86.40;96495.84;5063504;28;20064;-59
2021/07/07 09:38:46;;;;;;;5.85;5.25;;;;;;;30.25;81.59;96482.41;5064794;28;20060;-59
2021/07/07 09:41:17;;;;;;;6.30;5.80;;;;;;;29.75;78.06;96492.03;5065088;28;20056;-58
2021/07/07 09:43:47;;;;;;;6.13;5.63;;;;;;;30.48;75.28;96489.22;5066340;28;20083;-60
2021/07/07 09:46:15;;;;;;;6.85;5.93;;;;;;;29.89;80.41;96488.81;5066864;28;20079;-59
2021/07/07 09:48:44;;;;;;;6.50;5.90;;;;;;;30.86;76.38;96481.63;5064997;28;20116;-59
2021/07/07 09:51:12;;;;;;;7.90;5.85;;;;;;;31.00;71.11;96490.06;5066519;28;20071;-60
2021/07/07 09:53:40;;;;;;;6.40;5.80;;;;;;;31.65;68.24;96492.94;5064119;28;20071;-60
2021/07/07 09:56:10;;;;;;;7.03;6.40;;;;;;;32.24;60.83;96494.84;5065672;28;20468;-60
2021/07/07 09:58:40;;;;;;;4.38;4.07;;;;;;;32.61;57.83;96497.09;5067104;28;20126;-60
2021/07/07 10:01:08;;;;;;;4.85;3.80;;;;;;;32.59;58.05;96499.28;5065115;28;20080;-60
2021/07/07 10:03:37;;;;;;;5.13;3.72;;;;;;;32.75;54.98;96493.69;5065456;28;20068;-58
2021/07/07 10:06:07;;;;;;;3.70;3.30;;;;;;;33.68;53.17;96498.00;5064726;28;20470;-59
2021/07/07 10:08:35;;;;;;;;;;;;;;;34.41;46.82;96483.13;5066960;28;20063;-60
2021/07/07 10:11:04;;;;;;;3.15;2.90;;;;;;;33.68;47.62;96492.53;5065139;28;19983;-59
2021/07/07 10:13:32;;;;;;;3.83;3.08;;;;;;;33.95;48.01;96500.13;5066813;28;20076;-60
2021/07/07 10:16:02;;;;;;;3.60;3.30;;;;;;;34.36;47.89;96498.78;5064924;28;20483;-60
2021/07/07 10:18:32;;;;;;;2.13;1.80;;;;;;;32.52;49.87;96508.88;5066602;28;20068;-58
2021/07/07 10:21:00;;;;;;;2.60;2.40;;;;;;;34.34;47.90;96510.03;5063780;28;20920;-60
2021/07/07 10:23:32;;;;;;;2.42;1.85;;;;;;;34.34;44.65;96498.25;5064474;28;20490;-58
2021/07/07 10:26:01;;;;;;;2.70;1.90;;;;;;;34.62;44.98;96494.59;5065837;28;20095;-56
2021/07/07 10:28:30;;;;;;;2.38;2.17;;;;;;;34.13;45.17;96500.47;5068286;28;20072;-56
2021/07/07 10:31:00;;;;;;;2.17;1.98;;;;;;;34.04;43.80;96500.34;5065250;28;20091;-55
2021/07/07 10:33:31;;;;;;;2.30;1.70;;;;;;;35.12;42.69;96489.38;5064387;28;20530;-57
2021/07/07 10:36:23;;;;;;;1.70;1.38;;;;;;;34.88;42.72;96497.72;5065716;28;20612;-60
2021/07/07 10:38:54;;;;;;;2.40;1.90;;;;;;;34.88;42.79;96496.91;5065965;28;20072;-59
2021/07/07 10:41:52;;;;;;;1.60;1.50;;;;;;;34.87;43.17;96498.03;5064043;28;20083;-59
2021/07/07 10:44:56;;;;;;;3.53;2.63;;;;;;;34.65;42.87;96501.38;5059760;28;20067;-59
2021/07/07 10:47:39;;;;;;;2.72;2.47;;;;;;;33.89;45.82;96500.50;5063498;28;20071;-60
2021/07/07 10:50:10;;;;;;;1.85;1.67;;;;;;;34.10;44.55;96492.84;5065062;28;20428;-60
2021/07/07 10:52:46;;;;;;;1.50;1.30;;;;;;;34.45;43.17;96499.75;5067224;28;20080;-59
2021/07/07 10:55:16;;;;;;;2.38;1.40;;;;;;;33.63;45.36;96503.56;5063614;28;20167;-60
2021/07/07 10:57:47;;;;;;;1.30;1.00;;;;;;;34.90;40.86;96500.16;5061517;28;20544;-57
2021/07/07 11:00:30;;;;;;;1.85;1.10;;;;;;;33.98;42.10;96507.75;5069014;28;20071;-60
2021/07/07 11:03:31;;;;;;;1.70;1.25;;;;;;;34.15;43.47;96511.97;5069589;28;20075;-60
2021/07/07 11:06:36;;;;;;;1.40;1.05;;;;;;;33.28;45.17;96504.75;5053230;28;20072;-60
2021/07/07 11:09:15;;;;;;;0.90;0.90;;;;;;;32.75;45.85;96505.44;5067627;28;20147;-60
2021/07/07 11:11:46;;;;;;;1.75;1.08;;;;;;;33.59;43.57;96505.25;5068729;28;20068;-60
2021/07/07 11:14:18;;;;;;;2.55;1.00;;;;;;;34.08;42.45;96501.38;5068804;28;20537;-60
2021/07/07 11:16:57;;;;;;;0.98;0.93;;;;;;;34.41;42.43;96495.97;5069250;28;20079;-60
2021/07/07 11:19:46;;;;;;;1.60;1.48;;;;;;;33.26;44.34;96499.53;5070173;28;20084;-57
2021/07/07 11:22:17;;;;;;;1.65;1.50;;;;;;;32.61;46.84;96496.28;5065669;28;20258;-62
2021/07/07 11:24:48;;;;;;;5.47;1.63;;;;;;;31.74;50.49;96495.91;5065225;28;20032;-58
2021/07/07 11:27:17;;;;;;;2.08;1.58;;;;;;;33.53;44.91;96492.72;5068782;28;20067;-58
2021/07/07 11:29:46;;;;;;;1.80;1.70;;;;;;;32.93;47.94;96503.91;5067825;28;20608;-60
2021/07/07 11:32:36;;;;;;;1.73;1.63;;;;;;;33.06;46.25;96499.75;5067067;28;20117;-57
2021/07/07 11:35:05;;;;;;;;;;;;;;;34.61;42.05;96492.94;5068163;28;20083;-58
2021/07/07 11:37:36;;;;;;;2.47;1.27;;;;;;;33.79;44.10;96505.00;5071735;28;20444;-59
2021/07/07 11:40:08;;;;;;;1.98;1.30;;;;;;;33.81;45.47;96496.50;5067229;28;20068;-58
2021/07/07 11:42:54;;;;;;;2.28;1.50;;;;;;;34.86;41.87;96490.91;5065809;28;20085;-59
2021/07/07 11:45:25;;;;;;;1.60;1.50;;;;;;;34.70;41.95;96482.94;5065109;28;20068;-59